sensor_id;sensor_type;location;lat;lon;timestamp;pressure;altitude;pressure_sealevel;temperature;humidity
163;BME280;3946;48.958;8.284;2023-04-02T00:01:36;99753.16;;;8.56;100.00
163;BME280;3946;48.958;8.284;2023-04-02T00:04:22;99756.22;;;8.48;100.00
163;BME280;3946;48.958;8.284;2023-04-02T00:07:22;99756.75;;;8.53;100.00
163;BME280;3946;48.958;8.284;2023-04-02T00:10:23;99762.19;;;8.36;100.00
163;BME280;3946;48.958;8.284;2023-04-02T00:13:16;99767.78;;;8.43;100.00
163;BME280;3946;48.958;8.284;2023-04-02T00:16:04;99768.81;;;8.40;100.00
163;BME280;3946;48.958;8.284;2023-04-02T00:18:51;99761.69;;;8.44;100.00
163;BME280;3946;48.958;8.284;2023-04-02T00:21:38;99771.38;;;8.40;100.00
163;BME280;3946;48.958;8.284;2023-04-02T00:24:25;99769.72;;;8.39;100.00
163;BME280;3946;48.958;8.284;2023-04-02T00:27:11;99767.06;;;8.40;100.00
163;BME280;3946;48.958;8.284;2023-04-02T00:29:57;99765.59;;;8.36;100.00
163;BME280;3946;48.958;8.284;2023-04-02T00:32:42;99763.75;;;8.38;100.00
163;BME280;3946;48.958;8.284;2023-04-02T00:35:27;99760.97;;;8.41;100.00
163;BME280;3946;48.958;8.284;2023-04-02T00:38:17;99761.09;;;8.53;100.00
163;BME280;3946;48.958;8.284;2023-04-02T00:41:05;99761.56;;;8.45;100.00
163;BME280;3946;48.958;8.284;2023-04-02T00:43:50;99761.00;;;8.54;100.00
163;BME280;3946;48.958;8.284;2023-04-02T00:46:38;99755.44;;;8.60;100.00
163;BME280;3946;48.958;8.284;2023-04-02T00:49:30;99759.97;;;8.57;100.00
163;BME280;3946;48.958;8.284;2023-04-02T00:52:17;99753.47;;;8.64;100.00
163;BME280;3946;48.958;8.284;2023-04-02T00:55:07;99757.06;;;8.61;100.00
163;BME280;3946;48.958;8.284;2023-04-02T00:57:54;99752.44;;;8.66;100.00
163;BME280;3946;48.958;8.284;2023-04-02T01:00:39;99756.06;;;8.64;100.00
163;BME280;3946;48.958;8.284;2023-04-02T01:03:32;99753.19;;;8.68;100.00
163;BME280;3946;48.958;8.284;2023-04-02T01:06:18;99757.63;;;8.66;100.00
163;BME280;3946;48.958;8.284;2023-04-02T01:09:11;99761.03;;;8.80;100.00
163;BME280;3946;48.958;8.284;2023-04-02T01:12:02;99752.56;;;8.77;100.00
163;BME280;3946;48.958;8.284;2023-04-02T01:14:55;99758.44;;;8.67;100.00
163;BME280;3946;48.958;8.284;2023-04-02T01:17:47;99758.34;;;8.68;100.00
163;BME280;3946;48.958;8.284;2023-04-02T01:20:52;99762.97;;;8.63;100.00
163;BME280;3946;48.958;8.284;2023-04-02T01:23:48;99766.53;;;8.75;100.00
163;BME280;3946;48.958;8.284;2023-04-02T01:26:42;99771.06;;;8.71;100.00
163;BME280;3946;48.958;8.284;2023-04-02T01:29:31;99775.50;;;8.69;100.00
163;BME280;3946;48.958;8.284;2023-04-02T01:32:19;99774.97;;;8.64;100.00
163;BME280;3946;48.958;8.284;2023-04-02T01:35:05;99779.19;;;8.65;100.00
163;BME280;3946;48.958;8.284;2023-04-02T01:37:52;99774.28;;;8.48;100.00
163;BME280;3946;48.958;8.284;2023-04-02T01:40:42;99778.63;;;8.48;100.00
163;BME280;3946;48.958;8.284;2023-04-02T01:43:31;99779.47;;;8.61;100.00
163;BME280;3946;48.958;8.284;2023-04-02T01:46:26;99780.81;;;8.54;100.00
163;BME280;3946;48.958;8.284;2023-04-02T01:49:12;99780.03;;;8.66;100.00
163;BME280;3946;48.958;8.284;2023-04-02T01:51:58;99780.38;;;8.74;100.00
163;BME280;3946;48.958;8.284;2023-04-02T01:54:48;99778.91;;;8.70;100.00
163;BME280;3946;48.958;8.284;2023-04-02T01:57:35;99784.16;;;8.68;100.00
163;BME280;3946;48.958;8.284;2023-04-02T02:00:20;99786.56;;;8.71;100.00
163;BME280;3946;48.958;8.284;2023-04-02T02:03:12;99800.09;;;8.75;100.00
163;BME280;3946;48.958;8.284;2023-04-02T02:05:57;99788.94;;;8.74;100.00
163;BME280;3946;48.958;8.284;2023-04-02T02:08:44;99802.16;;;8.70;100.00
163;BME280;3946;48.958;8.284;2023-04-02T02:11:31;99797.56;;;8.61;100.00
163;BME280;3946;48.958;8.284;2023-04-02T02:14:21;99806.47;;;8.57;100.00
163;BME280;3946;48.958;8.284;2023-04-02T02:17:06;99814.47;;;8.52;100.00
163;BME280;3946;48.958;8.284;2023-04-02T02:19:57;99818.09;;;8.50;100.00
163;BME280;3946;48.958;8.284;2023-04-02T02:22:44;99825.59;;;8.40;100.00
163;BME280;3946;48.958;8.284;2023-04-02T02:25:31;99828.81;;;8.44;100.00
163;BME280;3946;48.958;8.284;2023-04-02T02:28:17;99846.88;;;8.44;100.00
163;BME280;3946;48.958;8.284;2023-04-02T02:31:05;99840.53;;;8.35;100.00
163;BME280;3946;48.958;8.284;2023-04-02T02:33:57;99847.25;;;8.37;100.00
163;BME280;3946;48.958;8.284;2023-04-02T02:36:48;99846.16;;;8.41;100.00
163;BME280;3946;48.958;8.284;2023-04-02T02:39:37;99845.50;;;8.38;100.00
163;BME280;3946;48.958;8.284;2023-04-02T02:42:25;99848.81;;;8.40;100.00
163;BME280;3946;48.958;8.284;2023-04-02T02:45:13;99851.94;;;8.45;100.00
163;BME280;3946;48.958;8.284;2023-04-02T02:48:00;99850.84;;;8.35;100.00
163;BME280;3946;48.958;8.284;2023-04-02T02:50:46;99858.22;;;8.41;100.00
163;BME280;3946;48.958;8.284;2023-04-02T02:53:33;99857.59;;;8.37;100.00
163;BME280;3946;48.958;8.284;2023-04-02T02:56:30;99865.06;;;8.42;100.00
163;BME280;3946;48.958;8.284;2023-04-02T02:59:18;99862.47;;;8.42;100.00
163;BME280;3946;48.958;8.284;2023-04-02T03:02:04;99858.97;;;8.43;100.00
163;BME280;3946;48.958;8.284;2023-04-02T03:04:51;99861.88;;;8.51;100.00
163;BME280;3946;48.958;8.284;2023-04-02T03:07:38;99860.31;;;8.49;100.00
163;BME280;3946;48.958;8.284;2023-04-02T03:10:29;99866.84;;;8.54;100.00
163;BME280;3946;48.958;8.284;2023-04-02T03:13:17;99864.38;;;8.53;100.00
163;BME280;3946;48.958;8.284;2023-04-02T03:16:08;99867.53;;;8.44;100.00
163;BME280;3946;48.958;8.284;2023-04-02T03:18:55;99871.03;;;8.43;100.00
163;BME280;3946;48.958;8.284;2023-04-02T03:21:43;99879.16;;;8.36;100.00
163;BME280;3946;48.958;8.284;2023-04-02T03:24:33;99874.88;;;8.50;100.00
163;BME280;3946;48.958;8.284;2023-04-02T03:27:23;99884.03;;;8.41;100.00
163;BME280;3946;48.958;8.284;2023-04-02T03:30:17;99885.56;;;8.58;100.00
163;BME280;3946;48.958;8.284;2023-04-02T03:33:08;99886.91;;;8.63;100.00
163;BME280;3946;48.958;8.284;2023-04-02T03:35:56;99890.84;;;8.56;100.00
163;BME280;3946;48.958;8.284;2023-04-02T03:38:44;99893.03;;;8.48;100.00
163;BME280;3946;48.958;8.284;2023-04-02T03:41:32;99897.47;;;8.60;100.00
163;BME280;3946;48.958;8.284;2023-04-02T03:44:25;99893.56;;;8.67;100.00
163;BME280;3946;48.958;8.284;2023-04-02T03:47:13;99892.72;;;8.67;100.00
163;BME280;3946;48.958;8.284;2023-04-02T03:50:02;99901.59;;;8.63;100.00
163;BME280;3946;48.958;8.284;2023-04-02T03:52:50;99906.50;;;8.53;100.00
163;BME280;3946;48.958;8.284;2023-04-02T03:55:36;99911.31;;;8.45;100.00
163;BME280;3946;48.958;8.284;2023-04-02T03:58:26;99914.09;;;8.42;100.00
163;BME280;3946;48.958;8.284;2023-04-02T04:01:15;99923.31;;;8.32;100.00
163;BME280;3946;48.958;8.284;2023-04-02T04:04:04;99928.94;;;8.38;100.00
163;BME280;3946;48.958;8.284;2023-04-02T04:06:50;99924.16;;;8.32;100.00
163;BME280;3946;48.958;8.284;2023-04-02T04:09:36;99934.53;;;8.31;100.00
163;BME280;3946;48.958;8.284;2023-04-02T04:12:24;99930.19;;;8.31;100.00
163;BME280;3946;48.958;8.284;2023-04-02T04:15:13;99926.16;;;8.27;100.00
163;BME280;3946;48.958;8.284;2023-04-02T04:18:02;99932.88;;;8.30;100.00
163;BME280;3946;48.958;8.284;2023-04-02T04:20:56;99939.34;;;8.23;100.00
163;BME280;3946;48.958;8.284;2023-04-02T04:23:49;99947.72;;;8.12;100.00
163;BME280;3946;48.958;8.284;2023-04-02T04:26:38;99956.00;;;8.31;100.00
163;BME280;3946;48.958;8.284;2023-04-02T04:29:30;99965.44;;;8.32;100.00
163;BME280;3946;48.958;8.284;2023-04-02T04:32:21;99955.59;;;8.39;100.00
163;BME280;3946;48.958;8.284;2023-04-02T04:35:15;99963.84;;;8.30;100.00
163;BME280;3946;48.958;8.284;2023-04-02T04:38:05;99975.00;;;8.45;100.00
163;BME280;3946;48.958;8.284;2023-04-02T04:40:59;99970.44;;;8.35;100.00
163;BME280;3946;48.958;8.284;2023-04-02T04:43:48;99975.41;;;8.38;100.00
163;BME280;3946;48.958;8.284;2023-04-02T04:46:37;99974.75;;;8.35;100.00
163;BME280;3946;48.958;8.284;2023-04-02T04:49:26;99986.91;;;8.33;100.00
163;BME280;3946;48.958;8.284;2023-04-02T04:52:15;99987.91;;;8.30;100.00
163;BME280;3946;48.958;8.284;2023-04-02T04:55:03;99994.13;;;8.42;100.00
163;BME280;3946;48.958;8.284;2023-04-02T04:58:03;100000.56;;;8.35;100.00
163;BME280;3946;48.958;8.284;2023-04-02T05:00:54;100005.91;;;8.32;100.00
163;BME280;3946;48.958;8.284;2023-04-02T05:03:42;100005.72;;;8.35;100.00
163;BME280;3946;48.958;8.284;2023-04-02T05:06:34;100018.72;;;8.33;100.00
163;BME280;3946;48.958;8.284;2023-04-02T05:09:24;100021.13;;;8.36;100.00
163;BME280;3946;48.958;8.284;2023-04-02T05:12:15;100014.63;;;8.29;100.00
163;BME280;3946;48.958;8.284;2023-04-02T05:15:03;100016.13;;;8.48;100.00
163;BME280;3946;48.958;8.284;2023-04-02T05:17:51;100018.09;;;8.44;100.00
163;BME280;3946;48.958;8.284;2023-04-02T05:20:40;100018.91;;;8.45;100.00
163;BME280;3946;48.958;8.284;2023-04-02T05:23:28;100023.34;;;8.57;100.00
163;BME280;3946;48.958;8.284;2023-04-02T05:26:18;100022.22;;;8.47;100.00
163;BME280;3946;48.958;8.284;2023-04-02T05:29:07;100020.94;;;8.54;100.00
163;BME280;3946;48.958;8.284;2023-04-02T05:31:54;100029.78;;;8.64;100.00
163;BME280;3946;48.958;8.284;2023-04-02T05:34:44;100026.94;;;8.54;100.00
163;BME280;3946;48.958;8.284;2023-04-02T05:37:31;100031.53;;;8.63;100.00
163;BME280;3946;48.958;8.284;2023-04-02T05:40:18;100031.34;;;8.52;100.00
163;BME280;3946;48.958;8.284;2023-04-02T05:43:08;100037.84;;;8.59;100.00
163;BME280;3946;48.958;8.284;2023-04-02T05:46:01;100043.81;;;8.60;100.00
163;BME280;3946;48.958;8.284;2023-04-02T05:48:48;100039.28;;;8.49;100.00
163;BME280;3946;48.958;8.284;2023-04-02T05:51:35;100050.00;;;8.57;100.00
163;BME280;3946;48.958;8.284;2023-04-02T05:54:23;100050.19;;;8.54;100.00
163;BME280;3946;48.958;8.284;2023-04-02T05:57:14;100059.59;;;8.55;100.00
163;BME280;3946;48.958;8.284;2023-04-02T06:00:04;100062.16;;;8.55;100.00
163;BME280;3946;48.958;8.284;2023-04-02T06:02:58;100054.31;;;8.71;100.00
163;BME280;3946;48.958;8.284;2023-04-02T06:05:50;100060.06;;;8.76;100.00
163;BME280;3946;48.958;8.284;2023-04-02T06:08:37;100060.41;;;8.84;100.00
163;BME280;3946;48.958;8.284;2023-04-02T06:11:24;100074.50;;;8.78;100.00
163;BME280;3946;48.958;8.284;2023-04-02T06:14:11;100079.50;;;8.82;100.00
163;BME280;3946;48.958;8.284;2023-04-02T06:16:58;100075.31;;;8.93;100.00
163;BME280;3946;48.958;8.284;2023-04-02T06:19:45;100082.38;;;8.91;100.00
163;BME280;3946;48.958;8.284;2023-04-02T06:22:32;100080.22;;;8.84;100.00
163;BME280;3946;48.958;8.284;2023-04-02T06:25:21;100089.06;;;8.94;100.00
163;BME280;3946;48.958;8.284;2023-04-02T06:28:10;100092.78;;;8.90;100.00
163;BME280;3946;48.958;8.284;2023-04-02T06:31:06;100105.31;;;8.82;100.00
163;BME280;3946;48.958;8.284;2023-04-02T06:33:56;100098.69;;;8.92;100.00
163;BME280;3946;48.958;8.284;2023-04-02T06:36:43;100106.63;;;9.03;100.00
163;BME280;3946;48.958;8.284;2023-04-02T06:39:29;100107.50;;;9.16;100.00
163;BME280;3946;48.958;8.284;2023-04-02T06:42:18;100108.53;;;9.13;100.00
163;BME280;3946;48.958;8.284;2023-04-02T06:45:19;100116.03;;;8.90;100.00
163;BME280;3946;48.958;8.284;2023-04-02T06:48:24;100122.84;;;9.05;100.00
163;BME280;3946;48.958;8.284;2023-04-02T06:51:15;100124.59;;;9.04;100.00
163;BME280;3946;48.958;8.284;2023-04-02T06:54:02;100120.53;;;9.00;100.00
163;BME280;3946;48.958;8.284;2023-04-02T06:56:48;100131.34;;;9.07;100.00
163;BME280;3946;48.958;8.284;2023-04-02T06:59:41;100141.84;;;9.18;100.00
163;BME280;3946;48.958;8.284;2023-04-02T07:02:32;100142.31;;;9.25;100.00
163;BME280;3946;48.958;8.284;2023-04-02T07:05:21;100148.19;;;9.27;100.00
163;BME280;3946;48.958;8.284;2023-04-02T07:08:08;100148.22;;;9.41;100.00
163;BME280;3946;48.958;8.284;2023-04-02T07:10:53;100147.63;;;9.50;100.00
163;BME280;3946;48.958;8.284;2023-04-02T07:13:39;100150.22;;;9.50;100.00
163;BME280;3946;48.958;8.284;2023-04-02T07:16:25;100146.19;;;9.59;100.00
163;BME280;3946;48.958;8.284;2023-04-02T07:19:15;100152.25;;;9.45;100.00
163;BME280;3946;48.958;8.284;2023-04-02T07:22:00;100153.22;;;9.71;100.00
163;BME280;3946;48.958;8.284;2023-04-02T07:24:53;100150.53;;;9.72;100.00
163;BME280;3946;48.958;8.284;2023-04-02T07:27:38;100151.91;;;9.91;100.00
163;BME280;3946;48.958;8.284;2023-04-02T07:30:23;100149.22;;;9.92;100.00
163;BME280;3946;48.958;8.284;2023-04-02T07:33:08;100161.13;;;9.82;100.00
163;BME280;3946;48.958;8.284;2023-04-02T07:35:58;100162.59;;;9.86;100.00
163;BME280;3946;48.958;8.284;2023-04-02T07:38:43;100164.56;;;9.95;100.00
163;BME280;3946;48.958;8.284;2023-04-02T07:41:29;100177.19;;;9.87;100.00
163;BME280;3946;48.958;8.284;2023-04-02T07:44:14;100178.19;;;9.85;100.00
163;BME280;3946;48.958;8.284;2023-04-02T07:46:59;100182.16;;;9.90;100.00
163;BME280;3946;48.958;8.284;2023-04-02T07:49:44;100182.72;;;10.08;100.00
163;BME280;3946;48.958;8.284;2023-04-02T07:52:30;100188.16;;;10.17;100.00
163;BME280;3946;48.958;8.284;2023-04-02T07:55:15;100191.03;;;10.13;100.00
163;BME280;3946;48.958;8.284;2023-04-02T07:58:02;100188.13;;;10.44;100.00
163;BME280;3946;48.958;8.284;2023-04-02T08:00:47;100194.97;;;10.45;100.00
163;BME280;3946;48.958;8.284;2023-04-02T08:03:31;100202.91;;;10.30;100.00
163;BME280;3946;48.958;8.284;2023-04-02T08:06:17;100209.94;;;10.55;100.00
163;BME280;3946;48.958;8.284;2023-04-02T08:09:02;100207.66;;;10.75;100.00
163;BME280;3946;48.958;8.284;2023-04-02T08:11:47;100205.78;;;10.52;100.00
163;BME280;3946;48.958;8.284;2023-04-02T08:14:33;100212.34;;;10.70;100.00
163;BME280;3946;48.958;8.284;2023-04-02T08:17:19;100212.94;;;10.74;100.00
163;BME280;3946;48.958;8.284;2023-04-02T08:20:05;100211.41;;;10.84;100.00
163;BME280;3946;48.958;8.284;2023-04-02T08:22:50;100212.94;;;10.74;100.00
163;BME280;3946;48.958;8.284;2023-04-02T08:25:35;100218.25;;;10.85;100.00
163;BME280;3946;48.958;8.284;2023-04-02T08:28:20;100226.13;;;10.96;100.00
163;BME280;3946;48.958;8.284;2023-04-02T08:31:07;100221.16;;;11.06;100.00
163;BME280;3946;48.958;8.284;2023-04-02T08:33:51;100234.22;;;10.92;100.00
163;BME280;3946;48.958;8.284;2023-04-02T08:36:40;100236.31;;;10.99;100.00
163;BME280;3946;48.958;8.284;2023-04-02T08:39:27;100233.19;;;11.32;100.00
163;BME280;3946;48.958;8.284;2023-04-02T08:42:17;100239.31;;;11.31;99.93
163;BME280;3946;48.958;8.284;2023-04-02T08:45:09;100241.28;;;11.28;100.00
163;BME280;3946;48.958;8.284;2023-04-02T08:48:03;100240.00;;;11.58;98.55
163;BME280;3946;48.958;8.284;2023-04-02T08:50:49;100246.00;;;11.59;97.45
163;BME280;3946;48.958;8.284;2023-04-02T08:53:34;100249.03;;;11.53;97.35
163;BME280;3946;48.958;8.284;2023-04-02T08:56:22;100252.19;;;11.33;97.63
163;BME280;3946;48.958;8.284;2023-04-02T08:59:14;100259.06;;;11.70;97.11
163;BME280;3946;48.958;8.284;2023-04-02T09:02:12;100260.97;;;11.81;94.31
163;BME280;3946;48.958;8.284;2023-04-02T09:05:08;100274.03;;;11.79;94.23
163;BME280;3946;48.958;8.284;2023-04-02T09:08:00;100262.69;;;11.93;94.34
163;BME280;3946;48.958;8.284;2023-04-02T09:10:48;100270.53;;;12.04;93.57
163;BME280;3946;48.958;8.284;2023-04-02T09:13:35;100272.69;;;12.10;91.95
163;BME280;3946;48.958;8.284;2023-04-02T09:16:33;100272.84;;;11.96;91.63
163;BME280;3946;48.958;8.284;2023-04-02T09:19:21;100284.47;;;12.27;91.43
163;BME280;3946;48.958;8.284;2023-04-02T09:22:08;100281.72;;;12.65;89.36
163;BME280;3946;48.958;8.284;2023-04-02T09:25:02;100277.81;;;12.71;87.51
163;BME280;3946;48.958;8.284;2023-04-02T09:27:50;100281.31;;;12.82;88.04
163;BME280;3946;48.958;8.284;2023-04-02T09:30:39;100293.69;;;12.79;88.16
163;BME280;3946;48.958;8.284;2023-04-02T09:33:42;100290.03;;;12.81;86.59
163;BME280;3946;48.958;8.284;2023-04-02T09:36:32;100295.50;;;12.89;86.33
163;BME280;3946;48.958;8.284;2023-04-02T09:39:19;100297.56;;;13.08;86.49
163;BME280;3946;48.958;8.284;2023-04-02T09:42:05;100292.41;;;13.19;84.92
163;BME280;3946;48.958;8.284;2023-04-02T09:44:51;100305.50;;;13.18;85.83
163;BME280;3946;48.958;8.284;2023-04-02T09:47:39;100290.72;;;13.18;83.82
163;BME280;3946;48.958;8.284;2023-04-02T09:50:26;100288.66;;;13.79;81.79
163;BME280;3946;48.958;8.284;2023-04-02T09:53:25;100293.75;;;13.58;81.88
163;BME280;3946;48.958;8.284;2023-04-02T09:56:14;100297.97;;;13.37;82.39
163;BME280;3946;48.958;8.284;2023-04-02T09:59:00;100306.38;;;13.85;82.26
163;BME280;3946;48.958;8.284;2023-04-02T10:01:47;100293.19;;;14.20;81.34
163;BME280;3946;48.958;8.284;2023-04-02T10:04:40;100276.63;;;14.85;78.70
163;BME280;3946;48.958;8.284;2023-04-02T10:07:31;100291.03;;;14.68;78.46
163;BME280;3946;48.958;8.284;2023-04-02T10:10:18;100265.31;;;14.32;76.10
163;BME280;3946;48.958;8.284;2023-04-02T10:13:07;100240.72;;;15.19;74.52
163;BME280;3946;48.958;8.284;2023-04-02T10:15:54;100274.84;;;15.07;75.09
163;BME280;3946;48.958;8.284;2023-04-02T10:18:43;100282.28;;;14.69;75.21
163;BME280;3946;48.958;8.284;2023-04-02T10:21:31;100273.06;;;15.07;74.47
163;BME280;3946;48.958;8.284;2023-04-02T10:24:17;100281.22;;;15.44;74.87
163;BME280;3946;48.958;8.284;2023-04-02T10:27:05;100216.59;;;15.77;70.16
163;BME280;3946;48.958;8.284;2023-04-02T10:30:10;100194.75;;;15.68;68.59
163;BME280;3946;48.958;8.284;2023-04-02T10:32:59;100224.00;;;15.62;69.40
163;BME280;3946;48.958;8.284;2023-04-02T10:35:48;100227.22;;;15.14;68.59
163;BME280;3946;48.958;8.284;2023-04-02T10:38:35;100217.66;;;15.24;68.24
163;BME280;3946;48.958;8.284;2023-04-02T10:41:25;100281.75;;;14.96;71.11
163;BME280;3946;48.958;8.284;2023-04-02T10:44:23;100280.81;;;14.97;71.16
163;BME280;3946;48.958;8.284;2023-04-02T10:47:15;100288.50;;;14.78;71.25
163;BME280;3946;48.958;8.284;2023-04-02T10:50:14;100248.25;;;14.92;69.01
163;BME280;3946;48.958;8.284;2023-04-02T10:53:05;100252.47;;;14.51;69.09
163;BME280;3946;48.958;8.284;2023-04-02T10:55:56;100292.00;;;14.13;70.59
163;BME280;3946;48.958;8.284;2023-04-02T10:58:44;100349.69;;;14.20;74.01
163;BME280;3946;48.958;8.284;2023-04-02T11:01:35;100349.34;;;13.69;74.91
163;BME280;3946;48.958;8.284;2023-04-02T11:04:22;100320.03;;;13.78;73.06
163;BME280;3946;48.958;8.284;2023-04-02T11:07:12;100349.84;;;13.62;74.25
163;BME280;3946;48.958;8.284;2023-04-02T11:10:00;100390.16;;;13.11;79.31
163;BME280;3946;48.958;8.284;2023-04-02T11:12:48;100392.09;;;12.72;81.11
163;BME280;3946;48.958;8.284;2023-04-02T11:15:35;100392.97;;;12.84;83.39
163;BME280;3946;48.958;8.284;2023-04-02T11:18:22;100399.78;;;12.50;83.77
163;BME280;3946;48.958;8.284;2023-04-02T11:21:16;100402.75;;;12.33;85.96
163;BME280;3946;48.958;8.284;2023-04-02T11:24:22;100403.28;;;12.12;87.93
163;BME280;3946;48.958;8.284;2023-04-02T11:27:13;100404.75;;;12.16;87.87
163;BME280;3946;48.958;8.284;2023-04-02T11:30:06;100408.03;;;12.31;88.27
163;BME280;3946;48.958;8.284;2023-04-02T11:33:22;100406.13;;;12.46;87.49
163;BME280;3946;48.958;8.284;2023-04-02T11:39:09;100412.06;;;12.72;86.08
163;BME280;3946;48.958;8.284;2023-04-02T11:42:04;100417.00;;;12.64;86.13
163;BME280;3946;48.958;8.284;2023-04-02T11:44:50;100417.00;;;12.87;85.25
163;BME280;3946;48.958;8.284;2023-04-02T11:47:34;100410.41;;;13.18;83.30
163;BME280;3946;48.958;8.284;2023-04-02T11:50:26;100399.25;;;13.40;81.74
163;BME280;3946;48.958;8.284;2023-04-02T11:53:17;100405.09;;;13.55;80.33
163;BME280;3946;48.958;8.284;2023-04-02T11:56:08;100392.06;;;13.55;78.74
163;BME280;3946;48.958;8.284;2023-04-02T11:59:03;100408.53;;;13.66;79.33
163;BME280;3946;48.958;8.284;2023-04-02T12:01:56;100401.78;;;13.64;78.88
163;BME280;3946;48.958;8.284;2023-04-02T12:04:51;100402.75;;;13.96;78.19
163;BME280;3946;48.958;8.284;2023-04-02T12:07:54;100395.78;;;13.75;77.04
163;BME280;3946;48.958;8.284;2023-04-02T12:10:54;100397.09;;;14.02;76.64
163;BME280;3946;48.958;8.284;2023-04-02T12:13:51;100397.56;;;14.19;75.74
163;BME280;3946;48.958;8.284;2023-04-02T12:16:36;100398.13;;;14.33;75.64
163;BME280;3946;48.958;8.284;2023-04-02T12:19:21;100392.69;;;14.36;74.59
163;BME280;3946;48.958;8.284;2023-04-02T12:22:11;100387.13;;;14.41;73.76
163;BME280;3946;48.958;8.284;2023-04-02T12:25:03;100384.75;;;14.49;72.94
163;BME280;3946;48.958;8.284;2023-04-02T12:28:01;100394.22;;;14.39;73.24
163;BME280;3946;48.958;8.284;2023-04-02T12:30:47;100394.13;;;14.18;72.72
163;BME280;3946;48.958;8.284;2023-04-02T12:33:33;100390.34;;;14.45;72.36
163;BME280;3946;48.958;8.284;2023-04-02T12:36:21;100387.66;;;14.99;71.93
163;BME280;3946;48.958;8.284;2023-04-02T12:39:12;100399.19;;;14.53;71.85
163;BME280;3946;48.958;8.284;2023-04-02T12:41:59;100378.31;;;14.96;70.65
163;BME280;3946;48.958;8.284;2023-04-02T12:44:47;100407.53;;;14.90;72.26
163;BME280;3946;48.958;8.284;2023-04-02T12:47:33;100405.22;;;15.08;71.58
163;BME280;3946;48.958;8.284;2023-04-02T12:50:19;100508.16;;;13.34;81.78
163;BME280;3946;48.958;8.284;2023-04-02T12:53:05;100500.50;;;12.59;86.86
163;BME280;3946;48.958;8.284;2023-04-02T12:55:56;100508.22;;;12.10;89.60
163;BME280;3946;48.958;8.284;2023-04-02T12:58:42;100515.88;;;11.86;92.55
163;BME280;3946;48.958;8.284;2023-04-02T13:01:27;100506.44;;;11.85;93.34
163;BME280;3946;48.958;8.284;2023-04-02T13:04:15;100515.56;;;11.51;94.34
163;BME280;3946;48.958;8.284;2023-04-02T13:07:00;100523.81;;;11.31;96.44
163;BME280;3946;48.958;8.284;2023-04-02T13:09:46;100540.06;;;11.20;98.01
163;BME280;3946;48.958;8.284;2023-04-02T13:12:33;100529.78;;;11.18;99.62
163;BME280;3946;48.958;8.284;2023-04-02T13:15:19;100532.84;;;11.11;100.00
163;BME280;3946;48.958;8.284;2023-04-02T13:18:12;100540.44;;;11.14;100.00
163;BME280;3946;48.958;8.284;2023-04-02T13:21:03;100544.78;;;11.13;100.00
163;BME280;3946;48.958;8.284;2023-04-02T13:23:48;100537.00;;;11.13;100.00
163;BME280;3946;48.958;8.284;2023-04-02T13:26:33;100542.50;;;11.36;100.00
163;BME280;3946;48.958;8.284;2023-04-02T13:29:20;100545.81;;;11.65;100.00
163;BME280;3946;48.958;8.284;2023-04-02T13:32:09;100544.16;;;11.37;99.48
163;BME280;3946;48.958;8.284;2023-04-02T13:34:55;100549.25;;;11.38;99.16
163;BME280;3946;48.958;8.284;2023-04-02T13:37:42;100552.78;;;11.64;98.64
163;BME280;3946;48.958;8.284;2023-04-02T13:40:27;100548.81;;;11.71;96.60
163;BME280;3946;48.958;8.284;2023-04-02T13:43:14;100559.41;;;11.95;95.81
163;BME280;3946;48.958;8.284;2023-04-02T13:46:00;100556.25;;;11.77;95.47
163;BME280;3946;48.958;8.284;2023-04-02T13:48:46;100565.94;;;11.61;95.53
163;BME280;3946;48.958;8.284;2023-04-02T13:51:33;100563.03;;;11.80;96.03
163;BME280;3946;48.958;8.284;2023-04-02T13:54:22;100579.06;;;11.99;94.93
163;BME280;3946;48.958;8.284;2023-04-02T13:57:09;100571.03;;;12.02;94.68
163;BME280;3946;48.958;8.284;2023-04-02T13:59:55;100580.28;;;11.67;95.40
163;BME280;3946;48.958;8.284;2023-04-02T14:02:41;100594.56;;;11.33;97.81
163;BME280;3946;48.958;8.284;2023-04-02T14:05:31;100594.34;;;10.95;100.00
163;BME280;3946;48.958;8.284;2023-04-02T14:08:22;100613.81;;;10.88;100.00
163;BME280;3946;48.958;8.284;2023-04-02T14:11:18;100603.81;;;10.53;100.00
163;BME280;3946;48.958;8.284;2023-04-02T14:14:09;100617.25;;;10.30;100.00
163;BME280;3946;48.958;8.284;2023-04-02T14:17:02;100616.69;;;10.25;100.00
163;BME280;3946;48.958;8.284;2023-04-02T14:20:02;100629.19;;;10.02;100.00
163;BME280;3946;48.958;8.284;2023-04-02T14:23:00;100635.16;;;9.89;100.00
163;BME280;3946;48.958;8.284;2023-04-02T14:25:53;100639.97;;;9.79;100.00
163;BME280;3946;48.958;8.284;2023-04-02T14:28:43;100643.84;;;9.72;100.00
163;BME280;3946;48.958;8.284;2023-04-02T14:31:33;100643.16;;;9.84;100.00
163;BME280;3946;48.958;8.284;2023-04-02T14:34:23;100651.63;;;9.72;100.00
163;BME280;3946;48.958;8.284;2023-04-02T14:37:15;100652.78;;;9.66;100.00
163;BME280;3946;48.958;8.284;2023-04-02T14:40:04;100659.53;;;9.53;100.00
163;BME280;3946;48.958;8.284;2023-04-02T14:42:55;100663.53;;;9.59;100.00
163;BME280;3946;48.958;8.284;2023-04-02T14:45:46;100670.38;;;9.44;100.00
163;BME280;3946;48.958;8.284;2023-04-02T14:48:36;100676.38;;;9.44;100.00
163;BME280;3946;48.958;8.284;2023-04-02T14:51:26;100674.13;;;9.38;100.00
163;BME280;3946;48.958;8.284;2023-04-02T14:54:14;100686.91;;;9.41;100.00
163;BME280;3946;48.958;8.284;2023-04-02T14:57:03;100689.56;;;9.40;100.00
163;BME280;3946;48.958;8.284;2023-04-02T14:59:51;100688.81;;;9.38;100.00
163;BME280;3946;48.958;8.284;2023-04-02T15:02:41;100695.06;;;9.50;100.00
163;BME280;3946;48.958;8.284;2023-04-02T15:05:32;100699.72;;;9.43;100.00
163;BME280;3946;48.958;8.284;2023-04-02T15:08:19;100709.13;;;9.28;100.00
163;BME280;3946;48.958;8.284;2023-04-02T15:11:07;100708.94;;;9.16;100.00
163;BME280;3946;48.958;8.284;2023-04-02T15:13:55;100719.38;;;9.14;100.00
163;BME280;3946;48.958;8.284;2023-04-02T15:16:42;100723.41;;;9.20;100.00
163;BME280;3946;48.958;8.284;2023-04-02T15:19:28;100727.72;;;9.19;100.00
163;BME280;3946;48.958;8.284;2023-04-02T15:22:17;100727.03;;;9.16;100.00
163;BME280;3946;48.958;8.284;2023-04-02T15:25:10;100737.00;;;9.23;100.00
163;BME280;3946;48.958;8.284;2023-04-02T15:28:01;100749.69;;;9.10;100.00